Time;durP1;ratioP1;P1;durP2;ratioP2;P2;SDS_P1;SDS_P2;PMS_P1;PMS_P2;Temp;Humidity;BMP_temperature;BMP_pressure;BME280_temperature;BME280_humidity;BME280_pressure;Samples;Min_cycle;Max_cycle;Signal;HPM_P1;HPM_P2
2021/11/28 00:00:08;;;;;;;;;;;;;;;;;;2075325;28;20008;-46
2021/11/28 00:01:09;;;;;;;;;;;;;;;;;;2073482;28;19992;-49
2021/11/28 00:02:12;;;;;;;;;;;;;;;;;;2073303;28;19995;-47
2021/11/28 00:03:14;;;;;;;;;;;;;;;;;;2070420;28;19925;-49
2021/11/28 00:04:14;;;;;;;;;;;;;;;;;;2073438;28;19926;-48
2021/11/28 00:05:17;;;;;;;;;;;;;;;;;;2072853;28;19932;-47
2021/11/28 00:06:22;;;;;;;;;;;;;;;;;;2074438;28;19987;-48
2021/11/28 00:07:30;;;;;;;;;;;;;;;;;;2081379;28;19925;-47
2021/11/28 00:10:09;;;;;;;;;;;;;;;;;;2055750;28;19962;-48
2021/11/28 00:11:18;;;;;;;;;;;;;;;;;;2055509;28;19965;-48
2021/11/28 00:12:27;;;;;;;;;;;;;;;;;;2050399;28;20009;-48
2021/11/28 00:13:49;;;;;;;;;;;;;;;;;;2056191;28;20097;-50
2021/11/28 00:14:53;;;;;;;;;;;;;;;;;;2052269;28;20031;-51
2021/11/28 00:15:54;;;;;;;;;;;;;;;;;;2061992;28;20007;-48
2021/11/28 00:16:55;;;;;;;;;;;;;;;;;;2073184;28;19968;-47
2021/11/28 00:17:56;;;;;;;;;;;;;;;;;;2073319;28;20272;-49
2021/11/28 00:18:57;;;;;;;;;;;;;;;;;;2081516;28;20011;-49
2021/11/28 00:19:58;;;;;;;;;;;;;;;;;;2081417;28;20016;-48
2021/11/28 00:20:59;;;;;;;;;;;;;;;;;;2072616;28;20138;-47
2021/11/28 00:22:00;;;;;;;;;;;;;;;;;;2080658;28;19929;-47
2021/11/28 00:23:04;;;;;;;;;;;;;;;;;;2076486;28;20008;-48
2021/11/28 00:24:04;;;;;;;;;;;;;;;;;;2075297;28;20021;-47
2021/11/28 00:25:05;;;;;;;;;;;;;;;;;;2081409;28;20331;-47
2021/11/28 00:26:06;;;;;;;;;;;;;;;;;;2079798;28;20358;-47
2021/11/28 00:27:08;;;;;;;;;;;;;;;;;;2074296;28;19971;-48
2021/11/28 00:28:16;;;;;;;;;;;;;;;;;;2073291;28;19932;-47
2021/11/28 00:29:16;;;;;;;;;;;;;;;;;;2071378;28;20064;-47
2021/11/28 00:30:17;;;;;;;;;;;;;;;;;;2078624;28;19925;-46
2021/11/28 00:31:18;;;;;;;;;;;;;;;;;;2081472;28;20508;-47
2021/11/28 00:32:19;;;;;;;;;;;;;;;;;;2076829;28;19926;-48
2021/11/28 00:33:20;;;;;;;;;;;;;;;;;;2075082;28;20445;-47
2021/11/28 00:34:21;;;;;;;;;;;;;;;;;;2073140;28;19926;-48
2021/11/28 00:35:22;;;;;;;;;;;;;;;;;;2072627;28;20020;-48
2021/11/28 00:36:23;;;;;;;;;;;;;;;;;;2074401;28;19926;-50
2021/11/28 00:37:24;;;;;;;;;;;;;;;;;;2073106;28;20334;-47
2021/11/28 00:38:25;;;;;;;;;;;;;;;;;;2071064;28;19933;-49
2021/11/28 00:39:25;;;;;;;;;;;;;;;;;;2079389;28;20467;-45
2021/11/28 00:40:26;;;;;;;;;;;;;;;;;;2081657;28;19975;-47
2021/11/28 00:41:27;;;;;;;;;;;;;;;;;;2075044;28;20083;-46
2021/11/28 00:42:28;;;;;;;;;;;;;;;;;;2080642;28;19926;-48
2021/11/28 00:43:29;;;;;;;;;;;;;;;;;;2081247;28;20445;-50
2021/11/28 00:44:30;;;;;;;;;;;;;;;;;;2074113;28;19926;-47
2021/11/28 00:45:31;;;;;;;;;;;;;;;;;;2081079;28;19932;-47
2021/11/28 00:46:32;;;;;;;;;;;;;;;;;;2081459;28;20446;-47
2021/11/28 00:47:33;;;;;;;;;;;;;;;;;;2074261;28;20294;-50
2021/11/28 00:48:37;;;;;;;;;;;;;;;;;;2081231;28;19979;-47
2021/11/28 00:49:38;;;;;;;;;;;;;;;;;;2081297;28;19925;-46
2021/11/28 00:50:45;;;;;;;;;;;;;;;;;;2074246;28;20251;-48
2021/11/28 00:51:51;;;;;;;;;;;;;;;;;;2081332;28;20008;-47
2021/11/28 00:52:54;;;;;;;;;;;;;;;;;;2078984;28;20076;-50
2021/11/28 00:53:55;;;;;;;;;;;;;;;;;;2077403;28;20011;-51
2021/11/28 00:54:56;;;;;;;;;;;;;;;;;;2081219;28;19925;-49
2021/11/28 00:55:57;;;;;;;;;;;;;;;;;;2076837;28;19925;-48
2021/11/28 00:56:57;;;;;;;;;;;;;;;;;;2077772;28;20016;-49
2021/11/28 00:57:58;;;;;;;;;;;;;;;;;;2081340;28;20409;-49
2021/11/28 00:58:59;;;;;;;;;;;;;;;;;;2076708;28;19989;-46
2021/11/28 01:00:03;;;;;;;;;;;;;;;;;;2078581;28;19936;-48
2021/11/28 01:01:03;;;;;;;;;;;;;;;;;;2081279;28;20016;-48
2021/11/28 01:02:05;;;;;;;;;;;;;;;;;;2076741;28;20098;-51
2021/11/28 01:03:06;;;;;;;;;;;;;;;;;;2072641;28;20323;-52
2021/11/28 01:04:07;;;;;;;;;;;;;;;;;;2073023;28;19932;-48
2021/11/28 01:05:07;;;;;;;;;;;;;;;;;;2073091;28;19933;-46
2021/11/28 01:06:08;;;;;;;;;;;;;;;;;;2073732;28;19926;-48
2021/11/28 01:07:10;;;;;;;;;;;;;;;;;;2072952;28;19935;-48
2021/11/28 01:08:11;;;;;;;;;;;;;;;;;;2071650;28;20398;-47
2021/11/28 01:09:12;;;;;;;;;;;;;;;;;;2072962;28;20394;-47
2021/11/28 01:10:13;;;;;;;;;;;;;;;;;;2072538;28;19976;-49
2021/11/28 01:11:14;;;;;;;;;;;;;;;;;;2073728;28;20008;-47
2021/11/28 01:12:15;;;;;;;;;;;;;;;;;;2081099;28;19954;-48
2021/11/28 01:13:16;;;;;;;;;;;;;;;;;;2080143;28;19947;-48
2021/11/28 01:14:17;;;;;;;;;;;;;;;;;;2074265;28;20282;-47
2021/11/28 01:15:17;;;;;;;;;;;;;;;;;;2073093;28;20028;-47
2021/11/28 01:16:19;;;;;;;;;;;;;;;;;;2072357;28;19929;-47
2021/11/28 01:17:20;;;;;;;;;;;;;;;;;;2076192;28;19979;-50
2021/11/28 01:18:21;;;;;;;;;;;;;;;;;;2081297;28;19967;-47
2021/11/28 01:19:23;;;;;;;;;;;;;;;;;;2077788;28;20016;-47
2021/11/28 01:20:23;;;;;;;;;;;;;;;;;;2076945;28;20011;-48
2021/11/28 01:21:24;;;;;;;;;;;;;;;;;;2082393;28;19929;-49
2021/11/28 01:22:25;;;;;;;;;;;;;;;;;;2078039;28;19977;-47
2021/11/28 01:23:26;;;;;;;;;;;;;;;;;;2080003;28;19940;-46
2021/11/28 01:24:27;;;;;;;;;;;;;;;;;;2082517;28;20409;-48
2021/11/28 01:25:28;;;;;;;;;;;;;;;;;;2078093;28;20081;-48
2021/11/28 01:26:31;;;;;;;;;;;;;;;;;;2077899;28;20387;-49
2021/11/28 01:27:33;;;;;;;;;;;;;;;;;;2082531;28;19925;-47
2021/11/28 01:28:34;;;;;;;;;;;;;;;;;;2077791;28;19926;-47
2021/11/28 01:29:35;;;;;;;;;;;;;;;;;;2075071;28;19932;-48
2021/11/28 01:30:36;;;;;;;;;;;;;;;;;;2074271;28;20263;-48
2021/11/28 01:31:37;;;;;;;;;;;;;;;;;;2074796;28;19947;-47
2021/11/28 01:32:38;;;;;;;;;;;;;;;;;;2074439;28;20066;-46
2021/11/28 01:33:39;;;;;;;;;;;;;;;;;;2074465;28;20379;-44
2021/11/28 01:34:40;;;;;;;;;;;;;;;;;;2073124;28;20514;-44
2021/11/28 01:35:41;;;;;;;;;;;;;;;;;;2074186;28;20024;-47
2021/11/28 01:36:42;;;;;;;;;;;;;;;;;;2073847;28;19926;-43
2021/11/28 01:37:44;;;;;;;;;;;;;;;;;;2075423;28;19936;-45
2021/11/28 01:38:45;;;;;;;;;;;;;;;;;;2074251;28;20016;-43
2021/11/28 01:39:47;;;;;;;;;;;;;;;;;;2073865;28;19960;-43
2021/11/28 01:40:48;;;;;;;;;;;;;;;;;;2076353;28;20078;-44
2021/11/28 01:41:49;;;;;;;;;;;;;;;;;;2074244;28;19925;-43
2021/11/28 01:42:50;;;;;;;;;;;;;;;;;;2072762;28;19976;-44
2021/11/28 01:43:52;;;;;;;;;;;;;;;;;;2079013;28;20012;-45
2021/11/28 01:44:52;;;;;;;;;;;;;;;;;;2082438;28;20020;-45
2021/11/28 01:45:53;;;;;;;;;;;;;;;;;;2077785;28;19944;-43
2021/11/28 01:46:55;;;;;;;;;;;;;;;;;;2079986;28;19929;-43
2021/11/28 01:47:56;;;;;;;;;;;;;;;;;;2082303;28;19999;-43
2021/11/28 01:48:57;;;;;;;;;;;;;;;;;;2077800;28;19964;-44
2021/11/28 01:49:58;;;;;;;;;;;;;;;;;;2080003;28;19967;-45
2021/11/28 01:51:02;;;;;;;;;;;;;;;;;;2082504;28;20011;-46
2021/11/28 01:52:03;;;;;;;;;;;;;;;;;;2077599;28;19926;-46
2021/11/28 01:53:04;;;;;;;;;;;;;;;;;;2074740;28;20427;-46
2021/11/28 01:54:11;;;;;;;;;;;;;;;;;;2074092;28;20023;-48
2021/11/28 01:55:12;;;;;;;;;;;;;;;;;;2073350;28;20008;-47
2021/11/28 01:56:13;;;;;;;;;;;;;;;;;;2082096;28;19976;-46
2021/11/28 01:57:14;;;;;;;;;;;;;;;;;;2082245;28;19925;-46
2021/11/28 01:58:15;;;;;;;;;;;;;;;;;;2075299;28;19997;-46
2021/11/28 01:59:16;;;;;;;;;;;;;;;;;;2082331;28;20397;-47
2021/11/28 02:00:17;;;;;;;;;;;;;;;;;;2082257;28;19925;-49
2021/11/28 02:01:18;;;;;;;;;;;;;;;;;;2074647;28;19933;-47
2021/11/28 02:02:19;;;;;;;;;;;;;;;;;;2073967;28;19945;-47
2021/11/28 02:03:20;;;;;;;;;;;;;;;;;;2072648;28;19965;-46
2021/11/28 02:04:21;;;;;;;;;;;;;;;;;;2072896;28;19965;-49
2021/11/28 02:05:22;;;;;;;;;;;;;;;;;;2074214;28;20013;-47
2021/11/28 02:06:23;;;;;;;;;;;;;;;;;;2073618;28;19973;-47
2021/11/28 02:07:24;;;;;;;;;;;;;;;;;;2075260;28;19926;-46
2021/11/28 02:08:25;;;;;;;;;;;;;;;;;;2073978;28;19925;-48
2021/11/28 02:09:26;;;;;;;;;;;;;;;;;;2073569;28;20387;-46
2021/11/28 02:10:26;;;;;;;;;;;;;;;;;;2076947;28;20007;-47
2021/11/28 02:11:27;;;;;;;;;;;;;;;;;;2082142;28;19979;-47
2021/11/28 02:12:29;;;;;;;;;;;;;;;;;;2079138;28;20449;-48
2021/11/28 02:13:30;;;;;;;;;;;;;;;;;;2076052;28;19943;-48
2021/11/28 02:14:31;;;;;;;;;;;;;;;;;;2074145;28;20204;-47
2021/11/28 02:15:32;;;;;;;;;;;;;;;;;;2072149;28;20303;-46
2021/11/28 02:16:33;;;;;;;;;;;;;;;;;;2079412;28;20397;-47
2021/11/28 02:17:34;;;;;;;;;;;;;;;;;;2081967;28;19933;-47
2021/11/28 02:18:35;;;;;;;;;;;;;;;;;;2077775;28;20012;-47
2021/11/28 02:19:36;;;;;;;;;;;;;;;;;;2075835;28;19925;-46
2021/11/28 02:20:37;;;;;;;;;;;;;;;;;;2074033;28;19929;-47
2021/11/28 02:21:38;;;;;;;;;;;;;;;;;;2073038;28;19925;-49
2021/11/28 02:22:39;;;;;;;;;;;;;;;;;;2079934;28;20039;-47
2021/11/28 02:23:40;;;;;;;;;;;;;;;;;;2082291;28;19929;-46
2021/11/28 02:24:40;;;;;;;;;;;;;;;;;;2076682;28;20016;-46
2021/11/28 02:25:41;;;;;;;;;;;;;;;;;;2079720;28;19971;-46
2021/11/28 02:26:42;;;;;;;;;;;;;;;;;;2082173;28;20279;-48
2021/11/28 02:27:43;;;;;;;;;;;;;;;;;;2077648;28;19955;-46
2021/11/28 02:28:44;;;;;;;;;;;;;;;;;;2074165;28;20004;-44
2021/11/28 02:29:45;;;;;;;;;;;;;;;;;;2074060;28;20012;-45
2021/11/28 02:30:46;;;;;;;;;;;;;;;;;;2074751;28;19925;-44
2021/11/28 02:31:47;;;;;;;;;;;;;;;;;;2073632;28;19926;-46
2021/11/28 02:32:48;;;;;;;;;;;;;;;;;;2073027;28;20374;-45
2021/11/28 02:33:49;;;;;;;;;;;;;;;;;;2073419;28;20048;-44
2021/11/28 02:34:50;;;;;;;;;;;;;;;;;;2081964;28;20020;-45
2021/11/28 02:35:51;;;;;;;;;;;;;;;;;;2081875;28;19933;-45
2021/11/28 02:36:52;;;;;;;;;;;;;;;;;;2074998;28;19947;-45
2021/11/28 02:37:53;;;;;;;;;;;;;;;;;;2073988;28;19925;-44
2021/11/28 02:38:54;;;;;;;;;;;;;;;;;;2073883;28;20338;-44
2021/11/28 02:39:55;;;;;;;;;;;;;;;;;;2074662;28;20054;-46
2021/11/28 02:40:56;;;;;;;;;;;;;;;;;;2082069;28;19937;-45
2021/11/28 02:41:57;;;;;;;;;;;;;;;;;;2081194;28;20024;-44
2021/11/28 02:42:58;;;;;;;;;;;;;;;;;;2075016;28;19929;-44
2021/11/28 02:43:59;;;;;;;;;;;;;;;;;;2073985;28;20024;-44
2021/11/28 02:45:00;;;;;;;;;;;;;;;;;;2073346;28;19934;-44
2021/11/28 02:46:02;;;;;;;;;;;;;;;;;;2075184;28;20012;-45
2021/11/28 02:47:04;;;;;;;;;;;;;;;;;;2073781;28;19925;-44
2021/11/28 02:48:04;;;;;;;;;;;;;;;;;;2072660;28;19944;-43
2021/11/28 02:49:05;;;;;;;;;;;;;;;;;;2078020;28;19933;-43
2021/11/28 02:50:06;;;;;;;;;;;;;;;;;;2082039;28;19960;-43
2021/11/28 02:51:07;;;;;;;;;;;;;;;;;;2077588;28;20283;-44
2021/11/28 02:52:08;;;;;;;;;;;;;;;;;;2078332;28;20016;-44
2021/11/28 02:53:09;;;;;;;;;;;;;;;;;;2081912;28;19944;-43
2021/11/28 02:54:10;;;;;;;;;;;;;;;;;;2076726;28;20076;-43
2021/11/28 02:55:11;;;;;;;;;;;;;;;;;;2079040;28;20437;-44
2021/11/28 02:56:12;;;;;;;;;;;;;;;;;;2081805;28;19943;-43
2021/11/28 02:57:13;;;;;;;;;;;;;;;;;;2076074;28;19956;-44
2021/11/28 02:58:14;;;;;;;;;;;;;;;;;;2079727;28;20068;-44
2021/11/28 02:59:15;;;;;;;;;;;;;;;;;;2082035;28;20420;-45
2021/11/28 03:00:15;;;;;;;;;;;;;;;;;;2076425;28;20016;-44
2021/11/28 03:01:18;;;;;;;;;;;;;;;;;;2074746;28;19925;-45
2021/11/28 03:02:19;;;;;;;;;;;;;;;;;;2073581;28;19948;-44
2021/11/28 03:03:20;;;;;;;;;;;;;;;;;;2072407;28;19932;-44
2021/11/28 03:04:21;;;;;;;;;;;;;;;;;;2073807;28;19971;-44
2021/11/28 03:05:22;;;;;;;;;;;;;;;;;;2073619;28;20375;-44
2021/11/28 03:06:23;;;;;;;;;;;;;;;;;;2072827;28;19960;-44
2021/11/28 03:07:24;;;;;;;;;;;;;;;;;;2081669;28;19925;-45
2021/11/28 03:08:24;;;;;;;;;;;;;;;;;;2082082;28;20012;-44
2021/11/28 03:09:26;;;;;;;;;;;;;;;;;;2074863;28;19932;-44
2021/11/28 03:10:26;;;;;;;;;;;;;;;;;;2081801;28;20020;-44
2021/11/28 03:11:27;;;;;;;;;;;;;;;;;;2081941;28;19947;-44
2021/11/28 03:12:28;;;;;;;;;;;;;;;;;;2074822;28;19925;-45
2021/11/28 03:13:29;;;;;;;;;;;;;;;;;;2081897;28;19932;-46
2021/11/28 03:14:30;;;;;;;;;;;;;;;;;;2081744;28;19951;-45
2021/11/28 03:15:31;;;;;;;;;;;;;;;;;;2074829;28;20020;-46
2021/11/28 03:16:32;;;;;;;;;;;;;;;;;;2081680;28;19925;-44
2021/11/28 03:17:33;;;;;;;;;;;;;;;;;;2080816;28;19925;-45
2021/11/28 03:18:34;;;;;;;;;;;;;;;;;;2075600;28;20394;-49
2021/11/28 03:19:35;;;;;;;;;;;;;;;;;;2081801;28;20445;-44
2021/11/28 03:20:36;;;;;;;;;;;;;;;;;;2080280;28;19933;-45
2021/11/28 03:21:38;;;;;;;;;;;;;;;;;;2076107;28;20389;-45
2021/11/28 03:22:39;;;;;;;;;;;;;;;;;;2081651;28;20024;-45
2021/11/28 03:23:40;;;;;;;;;;;;;;;;;;2079018;28;20394;-44
2021/11/28 03:24:41;;;;;;;;;;;;;;;;;;2075420;28;19985;-44
2021/11/28 03:25:42;;;;;;;;;;;;;;;;;;2073470;28;19925;-45
2021/11/28 03:26:43;;;;;;;;;;;;;;;;;;2071917;28;20040;-44
2021/11/28 03:27:44;;;;;;;;;;;;;;;;;;2077914;28;19940;-44
2021/11/28 03:28:45;;;;;;;;;;;;;;;;;;2081834;28;20023;-46
2021/11/28 03:29:47;;;;;;;;;;;;;;;;;;2077176;28;20009;-45
2021/11/28 03:30:48;;;;;;;;;;;;;;;;;;2075344;28;20012;-45
2021/11/28 03:31:49;;;;;;;;;;;;;;;;;;2073600;28;19925;-45
2021/11/28 03:32:50;;;;;;;;;;;;;;;;;;2071321;28;19988;-44
2021/11/28 03:33:51;;;;;;;;;;;;;;;;;;2079236;28;20378;-44
2021/11/28 03:34:52;;;;;;;;;;;;;;;;;;2081745;28;19926;-44
2021/11/28 03:35:53;;;;;;;;;;;;;;;;;;2075986;28;20004;-46
2021/11/28 03:36:54;;;;;;;;;;;;;;;;;;2079486;28;19925;-51
2021/11/28 03:37:55;;;;;;;;;;;;;;;;;;2081701;28;20020;-47
2021/11/28 03:38:56;;;;;;;;;;;;;;;;;;2075634;28;20064;-47
2021/11/28 03:39:56;;;;;;;;;;;;;;;;;;2073911;28;20020;-48
2021/11/28 03:40:57;;;;;;;;;;;;;;;;;;2073445;28;19925;-49
2021/11/28 03:41:58;;;;;;;;;;;;;;;;;;2072485;28;20012;-47
2021/11/28 03:42:59;;;;;;;;;;;;;;;;;;2081494;28;19931;-47
2021/11/28 03:44:00;;;;;;;;;;;;;;;;;;2081354;28;19929;-47
2021/11/28 03:45:01;;;;;;;;;;;;;;;;;;2074500;28;19925;-47
2021/11/28 03:46:02;;;;;;;;;;;;;;;;;;2081546;28;20023;-48
2021/11/28 03:47:03;;;;;;;;;;;;;;;;;;2081480;28;19947;-47
2021/11/28 03:48:04;;;;;;;;;;;;;;;;;;2074329;28;20351;-47
2021/11/28 03:49:05;;;;;;;;;;;;;;;;;;2081610;28;19936;-46
2021/11/28 03:50:06;;;;;;;;;;;;;;;;;;2081488;28;19951;-47
2021/11/28 03:51:07;;;;;;;;;;;;;;;;;;2074614;28;20363;-47
2021/11/28 03:52:08;;;;;;;;;;;;;;;;;;2081669;28;20016;-46
2021/11/28 03:53:09;;;;;;;;;;;;;;;;;;2080876;28;19925;-48
2021/11/28 03:54:10;;;;;;;;;;;;;;;;;;2074756;28;19933;-47
2021/11/28 03:55:13;;;;;;;;;;;;;;;;;;2073689;28;19929;-49
2021/11/28 03:56:13;;;;;;;;;;;;;;;;;;2072984;28;19926;-49
2021/11/28 03:57:14;;;;;;;;;;;;;;;;;;2076107;28;20379;-47
2021/11/28 03:58:15;;;;;;;;;;;;;;;;;;2081579;28;20020;-49
2021/11/28 03:59:16;;;;;;;;;;;;;;;;;;2078634;28;19936;-49
2021/11/28 04:00:17;;;;;;;;;;;;;;;;;;2075397;28;19926;-47
2021/11/28 04:01:18;;;;;;;;;;;;;;;;;;2073414;28;20023;-47
2021/11/28 04:02:19;;;;;;;;;;;;;;;;;;2072571;28;20268;-47
2021/11/28 04:03:20;;;;;;;;;;;;;;;;;;2071594;28;19930;-48
2021/11/28 04:04:21;;;;;;;;;;;;;;;;;;2073463;28;19983;-47
2021/11/28 04:05:22;;;;;;;;;;;;;;;;;;2072830;28;20367;-47
2021/11/28 04:06:23;;;;;;;;;;;;;;;;;;2073515;28;19925;-48
2021/11/28 04:07:24;;;;;;;;;;;;;;;;;;2073402;28;19932;-48
2021/11/28 04:08:25;;;;;;;;;;;;;;;;;;2072241;28;20011;-48
2021/11/28 04:09:26;;;;;;;;;;;;;;;;;;2081353;28;19929;-47
2021/11/28 04:10:26;;;;;;;;;;;;;;;;;;2081671;28;19995;-48
2021/11/28 04:11:27;;;;;;;;;;;;;;;;;;2074656;28;19980;-48
2021/11/28 04:12:28;;;;;;;;;;;;;;;;;;2081355;28;20378;-47
2021/11/28 04:13:29;;;;;;;;;;;;;;;;;;2081506;28;19932;-49
2021/11/28 04:14:30;;;;;;;;;;;;;;;;;;2074441;28;20401;-46
2021/11/28 04:15:31;;;;;;;;;;;;;;;;;;2081331;28;19925;-47
2021/11/28 04:16:32;;;;;;;;;;;;;;;;;;2081700;28;19925;-47
2021/11/28 04:17:33;;;;;;;;;;;;;;;;;;2074654;28;19925;-44
2021/11/28 04:18:34;;;;;;;;;;;;;;;;;;2073270;28;20390;-44
2021/11/28 04:19:35;;;;;;;;;;;;;;;;;;2072771;28;19929;-44
2021/11/28 04:20:36;;;;;;;;;;;;;;;;;;2074523;28;19934;-44
2021/11/28 04:21:41;;;;;;;;;;;;;;;;;;2073259;28;19930;-44
2021/11/28 04:22:42;;;;;;;;;;;;;;;;;;2072654;28;19929;-45
2021/11/28 04:23:43;;;;;;;;;;;;;;;;;;2076769;28;20378;-44
2021/11/28 04:24:44;;;;;;;;;;;;;;;;;;2081562;28;20014;-43
2021/11/28 04:25:47;;;;;;;;;;;;;;;;;;2077772;28;19925;-44
2021/11/28 04:26:48;;;;;;;;;;;;;;;;;;2073996;28;19968;-44
2021/11/28 04:27:49;;;;;;;;;;;;;;;;;;2073209;28;20378;-44
2021/11/28 04:28:50;;;;;;;;;;;;;;;;;;2072030;28;20020;-43
2021/11/28 04:29:51;;;;;;;;;;;;;;;;;;2074949;28;19925;-43
2021/11/28 04:30:52;;;;;;;;;;;;;;;;;;2073203;28;19952;-43
2021/11/28 04:31:54;;;;;;;;;;;;;;;;;;2071258;28;19933;-45
2021/11/28 04:32:55;;;;;;;;;;;;;;;;;;2074494;28;20512;-43
2021/11/28 04:33:56;;;;;;;;;;;;;;;;;;2073361;28;20023;-43
2021/11/28 04:34:57;;;;;;;;;;;;;;;;;;2072215;28;20090;-44
2021/11/28 04:35:58;;;;;;;;;;;;;;;;;;2078900;28;19925;-44
2021/11/28 04:36:59;;;;;;;;;;;;;;;;;;2081293;28;20364;-44
2021/11/28 04:38:00;;;;;;;;;;;;;;;;;;2075016;28;20032;-43
2021/11/28 04:39:01;;;;;;;;;;;;;;;;;;2080683;28;20043;-45
2021/11/28 04:40:01;;;;;;;;;;;;;;;;;;2081217;28;20016;-43
2021/11/28 04:41:02;;;;;;;;;;;;;;;;;;2074345;28;19975;-44
2021/11/28 04:42:03;;;;;;;;;;;;;;;;;;2073038;28;20389;-45
2021/11/28 04:43:04;;;;;;;;;;;;;;;;;;2072624;28;19933;-44
2021/11/28 04:44:05;;;;;;;;;;;;;;;;;;2074331;28;20003;-44
2021/11/28 04:45:06;;;;;;;;;;;;;;;;;;2081285;28;19932;-45
2021/11/28 04:46:07;;;;;;;;;;;;;;;;;;2079723;28;20020;-44
2021/11/28 04:47:08;;;;;;;;;;;;;;;;;;2073764;28;20012;-45
2021/11/28 04:48:09;;;;;;;;;;;;;;;;;;2073053;28;20019;-44
2021/11/28 04:49:11;;;;;;;;;;;;;;;;;;2072381;28;19969;-44
2021/11/28 04:50:12;;;;;;;;;;;;;;;;;;2073994;28;20391;-44
2021/11/28 04:51:13;;;;;;;;;;;;;;;;;;2073690;28;20016;-48
2021/11/28 04:52:14;;;;;;;;;;;;;;;;;;2071228;28;19936;-46
2021/11/28 04:53:15;;;;;;;;;;;;;;;;;;2075762;28;19932;-46
2021/11/28 04:54:16;;;;;;;;;;;;;;;;;;2073421;28;19925;-45
2021/11/28 04:55:17;;;;;;;;;;;;;;;;;;2072006;28;19926;-48
2021/11/28 04:56:18;;;;;;;;;;;;;;;;;;2079837;28;22379;-50
2021/11/28 04:57:19;;;;;;;;;;;;;;;;;;2083085;28;20435;-46
2021/11/28 04:58:20;;;;;;;;;;;;;;;;;;2076762;28;20012;-45
2021/11/28 04:59:21;;;;;;;;;;;;;;;;;;2074324;28;20024;-45
2021/11/28 05:00:22;;;;;;;;;;;;;;;;;;2074766;28;19925;-47
2021/11/28 05:01:23;;;;;;;;;;;;;;;;;;2073523;28;20000;-46
2021/11/28 05:02:24;;;;;;;;;;;;;;;;;;2074383;28;20298;-46
2021/11/28 05:03:25;;;;;;;;;;;;;;;;;;2072710;28;19932;-46
2021/11/28 05:04:29;;;;;;;;;;;;;;;;;;2076697;28;19955;-47
2021/11/28 05:05:30;;;;;;;;;;;;;;;;;;2082586;28;20039;-49
2021/11/28 05:06:31;;;;;;;;;;;;;;;;;;2078528;28;19972;-49
2021/11/28 05:07:32;;;;;;;;;;;;;;;;;;2078058;28;20306;-46
2021/11/28 05:08:33;;;;;;;;;;;;;;;;;;2082511;28;20410;-45
2021/11/28 05:09:34;;;;;;;;;;;;;;;;;;2078243;28;19926;-47
2021/11/28 05:10:35;;;;;;;;;;;;;;;;;;2080141;28;20094;-46
2021/11/28 05:11:36;;;;;;;;;;;;;;;;;;2082590;28;19925;-45
2021/11/28 05:12:37;;;;;;;;;;;;;;;;;;2077114;28;20044;-47
2021/11/28 05:13:37;;;;;;;;;;;;;;;;;;2080274;28;19924;-47
2021/11/28 05:14:38;;;;;;;;;;;;;;;;;;2082909;28;20450;-47
2021/11/28 05:15:39;;;;;;;;;;;;;;;;;;2077201;28;20435;-45
2021/11/28 05:16:41;;;;;;;;;;;;;;;;;;2080920;28;19935;-44
2021/11/28 05:17:42;;;;;;;;;;;;;;;;;;2082444;28;20012;-44
2021/11/28 05:18:43;;;;;;;;;;;;;;;;;;2076557;28;19929;-44
2021/11/28 05:19:47;;;;;;;;;;;;;;;;;;2082444;28;20286;-48
2021/11/28 05:20:49;;;;;;;;;;;;;;;;;;2082511;28;20020;-45
2021/11/28 05:21:49;;;;;;;;;;;;;;;;;;2075491;28;20083;-46
2021/11/28 05:22:50;;;;;;;;;;;;;;;;;;2082316;28;19940;-45
2021/11/28 05:23:51;;;;;;;;;;;;;;;;;;2082641;28;20047;-47
2021/11/28 05:24:52;;;;;;;;;;;;;;;;;;2075407;28;20330;-45
2021/11/28 05:25:53;;;;;;;;;;;;;;;;;;2080476;28;19971;-45
2021/11/28 05:26:55;;;;;;;;;;;;;;;;;;2074258;28;19972;-46
2021/11/28 05:27:55;;;;;;;;;;;;;;;;;;2074852;28;20096;-46
2021/11/28 05:28:56;;;;;;;;;;;;;;;;;;2082456;28;20027;-46
2021/11/28 05:29:57;;;;;;;;;;;;;;;;;;2082569;28;20015;-46
2021/11/28 05:30:58;;;;;;;;;;;;;;;;;;2074369;28;19932;-45
2021/11/28 05:31:59;;;;;;;;;;;;;;;;;;2074282;28;19926;-46
2021/11/28 05:33:00;;;;;;;;;;;;;;;;;;2073986;28;19936;-46
2021/11/28 05:34:01;;;;;;;;;;;;;;;;;;2072512;28;20033;-45
2021/11/28 05:35:02;;;;;;;;;;;;;;;;;;2074277;28;19925;-46
2021/11/28 05:36:03;;;;;;;;;;;;;;;;;;2072342;28;19949;-45
2021/11/28 05:37:04;;;;;;;;;;;;;;;;;;2078269;28;20378;-46
2021/11/28 05:38:05;;;;;;;;;;;;;;;;;;2082702;28;20449;-47
2021/11/28 05:39:06;;;;;;;;;;;;;;;;;;2077270;28;19934;-45
2021/11/28 05:40:06;;;;;;;;;;;;;;;;;;2080665;28;19925;-46
2021/11/28 05:41:07;;;;;;;;;;;;;;;;;;2082511;28;19932;-45
2021/11/28 05:42:08;;;;;;;;;;;;;;;;;;2076545;28;19930;-47
2021/11/28 05:43:10;;;;;;;;;;;;;;;;;;2074246;28;19929;-46
2021/11/28 05:44:10;;;;;;;;;;;;;;;;;;2074235;28;20450;-45
2021/11/28 05:45:11;;;;;;;;;;;;;;;;;;2074627;28;19976;-47
2021/11/28 05:46:12;;;;;;;;;;;;;;;;;;2082465;28;20007;-47
2021/11/28 05:47:13;;;;;;;;;;;;;;;;;;2082624;28;20391;-47
2021/11/28 05:48:14;;;;;;;;;;;;;;;;;;2075831;28;20024;-50
2021/11/28 05:49:15;;;;;;;;;;;;;;;;;;2082450;28;19933;-47
2021/11/28 05:50:16;;;;;;;;;;;;;;;;;;2081405;28;19947;-47
2021/11/28 05:51:17;;;;;;;;;;;;;;;;;;2076429;28;20398;-47
2021/11/28 05:52:18;;;;;;;;;;;;;;;;;;2082401;28;20004;-47
2021/11/28 05:53:19;;;;;;;;;;;;;;;;;;2080605;28;20122;-46
2021/11/28 05:54:19;;;;;;;;;;;;;;;;;;2075583;28;20163;-47
2021/11/28 05:55:20;;;;;;;;;;;;;;;;;;2074207;28;20398;-46
2021/11/28 05:56:21;;;;;;;;;;;;;;;;;;2072842;28;20404;-47
2021/11/28 05:57:23;;;;;;;;;;;;;;;;;;2078339;28;19929;-46
2021/11/28 05:58:23;;;;;;;;;;;;;;;;;;2082374;28;20024;-49
2021/11/28 05:59:26;;;;;;;;;;;;;;;;;;2077969;28;19968;-47
2021/11/28 06:00:27;;;;;;;;;;;;;;;;;;2079667;28;20011;-47
2021/11/28 06:01:28;;;;;;;;;;;;;;;;;;2082304;28;19925;-47
2021/11/28 06:02:29;;;;;;;;;;;;;;;;;;2077837;28;19957;-46
2021/11/28 06:03:30;;;;;;;;;;;;;;;;;;2075214;28;20275;-46
2021/11/28 06:04:31;;;;;;;;;;;;;;;;;;2082413;28;20465;-47
2021/11/28 06:05:32;;;;;;;;;;;;;;;;;;2077043;28;19934;-49
2021/11/28 06:06:33;;;;;;;;;;;;;;;;;;2080518;28;19957;-47
2021/11/28 06:07:34;;;;;;;;;;;;;;;;;;2082210;28;19925;-46
2021/11/28 06:08:35;;;;;;;;;;;;;;;;;;2075221;28;19976;-50
2021/11/28 06:09:36;;;;;;;;;;;;;;;;;;2081410;28;19925;-47
2021/11/28 06:10:37;;;;;;;;;;;;;;;;;;2082244;28;20362;-47
2021/11/28 06:11:38;;;;;;;;;;;;;;;;;;2075714;28;19925;-47
2021/11/28 06:12:38;;;;;;;;;;;;;;;;;;2081795;28;20520;-46
2021/11/28 06:13:39;;;;;;;;;;;;;;;;;;2082200;28;19925;-47
2021/11/28 06:14:40;;;;;;;;;;;;;;;;;;2074334;28;20339;-50
2021/11/28 06:15:41;;;;;;;;;;;;;;;;;;2082033;28;19944;-46
2021/11/28 06:16:42;;;;;;;;;;;;;;;;;;2082078;28;20051;-47
2021/11/28 06:17:43;;;;;;;;;;;;;;;;;;2076389;28;19925;-46
2021/11/28 06:18:44;;;;;;;;;;;;;;;;;;2073984;28;19932;-47
2021/11/28 06:19:45;;;;;;;;;;;;;;;;;;2074225;28;19925;-49
2021/11/28 06:20:47;;;;;;;;;;;;;;;;;;2074231;28;19932;-46
2021/11/28 06:21:48;;;;;;;;;;;;;;;;;;2073422;28;20160;-45
2021/11/28 06:22:49;;;;;;;;;;;;;;;;;;2072937;28;19925;-45
2021/11/28 06:23:50;;;;;;;;;;;;;;;;;;2075664;28;20543;-47
2021/11/28 06:24:51;;;;;;;;;;;;;;;;;;2082110;28;20078;-45
2021/11/28 06:25:52;;;;;;;;;;;;;;;;;;2081096;28;20008;-46
2021/11/28 06:27:06;;;;;;;;;;;;;;;;;;2074773;28;19932;-45
2021/11/28 06:28:07;;;;;;;;;;;;;;;;;;2073959;28;20040;-45
2021/11/28 06:29:08;;;;;;;;;;;;;;;;;;2072753;28;19925;-46
2021/11/28 06:30:10;;;;;;;;;;;;;;;;;;2076112;28;19932;-47
2021/11/28 06:31:11;;;;;;;;;;;;;;;;;;2074211;28;19973;-46
2021/11/28 06:32:12;;;;;;;;;;;;;;;;;;2073207;28;19925;-49
2021/11/28 06:33:13;;;;;;;;;;;;;;;;;;2075321;28;19925;-47
2021/11/28 06:34:14;;;;;;;;;;;;;;;;;;2073867;28;19930;-47
2021/11/28 06:35:15;;;;;;;;;;;;;;;;;;2072906;28;19929;-46
2021/11/28 06:36:16;;;;;;;;;;;;;;;;;;2079682;28;19925;-46
2021/11/28 06:37:17;;;;;;;;;;;;;;;;;;2082100;28;19929;-46
2021/11/28 06:38:38;;;;;;;;;;;;;;;;;;2072298;28;19971;-46
2021/11/28 06:39:39;;;;;;;;;;;;;;;;;;2073990;28;20044;-47
2021/11/28 06:40:40;;;;;;;;;;;;;;;;;;2072239;28;19951;-46
2021/11/28 06:41:43;;;;;;;;;;;;;;;;;;2078276;28;19939;-45
2021/11/28 06:42:44;;;;;;;;;;;;;;;;;;2082119;28;19970;-46
2021/11/28 06:43:45;;;;;;;;;;;;;;;;;;2077448;28;19932;-47
2021/11/28 06:44:46;;;;;;;;;;;;;;;;;;2073691;28;19925;-47
2021/11/28 06:45:47;;;;;;;;;;;;;;;;;;2073819;28;19999;-48
2021/11/28 06:46:48;;;;;;;;;;;;;;;;;;2072494;28;19941;-46
2021/11/28 06:47:50;;;;;;;;;;;;;;;;;;2074794;28;20059;-46
2021/11/28 06:48:51;;;;;;;;;;;;;;;;;;2073970;28;19961;-46
2021/11/28 06:49:52;;;;;;;;;;;;;;;;;;2072961;28;19926;-47
2021/11/28 06:50:53;;;;;;;;;;;;;;;;;;2081107;28;20016;-48
2021/11/28 06:51:54;;;;;;;;;;;;;;;;;;2081949;28;20302;-48
2021/11/28 06:52:55;;;;;;;;;;;;;;;;;;2075458;28;20059;-49
2021/11/28 06:53:57;;;;;;;;;;;;;;;;;;2082103;28;20015;-49
2021/11/28 06:54:58;;;;;;;;;;;;;;;;;;2082144;28;20011;-50
2021/11/28 06:56:03;;;;;;;;;;;;;;;;;;2074967;28;19934;-50
2021/11/28 06:57:04;;;;;;;;;;;;;;;;;;2065582;28;19925;-49
2021/11/28 06:58:05;;;;;;;;;;;;;;;;;;2065729;28;20299;-47
2021/11/28 06:59:06;;;;;;;;;;;;;;;;;;2073776;28;20012;-47
2021/11/28 07:00:07;;;;;;;;;;;;;;;;;;2081951;28;19926;-50